Atwater, IL

6:40 PM CDT on August 24, 2016 (GMT -0500)
North West side of town | | Change Station

Elev 640 ft 39.32 °N, 89.58 °W | Updated 11 minutes ago

Clear
Clear
87.3 °F
Feels Like 98 °F
N
0.0
Wind Variable Wind from West

Today
High -- | Low -- °F
--% Chance of Precip.
Yesterday
High -- | Low -- °F
Precip. -- in
Pressure 30.01 in
Visibility 10.0 miles
Clouds Clear
Heat Index 98 °F
Dew Point 76 °F
Humidity 69%
Rainfall 0.00 in
Snow Depth Not available.
6:20 AM 7:40 PM
Waning Gibbous, 52% visible
METAR K3LF 242335Z AUTO 29004KT 10SM CLR 31/22 A3001 RMK AO2 T03070216
Pressure 30.01 in
Visibility 10.0 miles
Clouds Clear
Heat Index 98 °F
Dew Point 76 °F
Humidity 69%
Rainfall 0.00 in
Snow Depth Not available.
6:20 AM 7:40 PM
Waning Gibbous, 52% visible
METAR K3LF 242335Z AUTO 29004KT 10SM CLR 31/22 A3001 RMK AO2 T03070216

10-Day Weather Forecast

Almanac

Astronomy

Aug. 24, 2016 Rise Set
Actual Time
Civil Twilight
Nautical Twilight
Astronomical Twilight
Moon
Length of Visible Light
Length of Day
Tomorrow will be .
, % of the Moon is Illuminated

Today's Extremes

State Highs State Lows

Community

WunderPhotos

Upload Photos

1,934,738 photos uploaded!

WunderBlog® & News

Nearby

Air Quality

  Air Quality AQ Index Pollutant
Not available.

Snow Depth

Station Depth Elevation

Earthquake Activity

City Distance Mag. Time & Date
Minimum magnitude displayed is 2.5.

Coastal Water Temperatures

Place Temperature

Stations

Nearby Weather Stations

Station Location Temp. Windchill Dew Point Humidity Wind Precip. Elev Updated Type
                   

Watches & Warnings

There are currently no watches in effect.